sensor_id;sensor_type;location;lat;lon;timestamp;temperature;humidity
20457;DHT22;10387;51.102;6.848;2023-03-04T00:02:23;3.20;99.90
20457;DHT22;10387;51.102;6.848;2023-03-04T00:04:49;3.20;99.90
20457;DHT22;10387;51.102;6.848;2023-03-04T00:07:15;3.20;99.90
20457;DHT22;10387;51.102;6.848;2023-03-04T00:09:46;3.20;99.90
20457;DHT22;10387;51.102;6.848;2023-03-04T00:12:13;3.20;99.90
20457;DHT22;10387;51.102;6.848;2023-03-04T00:14:39;3.30;99.90
20457;DHT22;10387;51.102;6.848;2023-03-04T00:17:08;3.30;99.90
20457;DHT22;10387;51.102;6.848;2023-03-04T00:19:34;3.30;99.90
20457;DHT22;10387;51.102;6.848;2023-03-04T00:22:03;3.30;99.90
20457;DHT22;10387;51.102;6.848;2023-03-04T00:24:30;3.40;99.90
20457;DHT22;10387;51.102;6.848;2023-03-04T00:26:58;3.40;99.90
20457;DHT22;10387;51.102;6.848;2023-03-04T00:29:25;3.40;99.90
20457;DHT22;10387;51.102;6.848;2023-03-04T00:31:52;3.40;99.90
20457;DHT22;10387;51.102;6.848;2023-03-04T00:34:18;3.50;99.90
20457;DHT22;10387;51.102;6.848;2023-03-04T00:36:45;3.50;99.90
20457;DHT22;10387;51.102;6.848;2023-03-04T00:39:11;3.50;99.90
20457;DHT22;10387;51.102;6.848;2023-03-04T00:41:40;3.50;99.90
20457;DHT22;10387;51.102;6.848;2023-03-04T00:44:09;3.50;99.90
20457;DHT22;10387;51.102;6.848;2023-03-04T00:46:43;3.50;99.90
20457;DHT22;10387;51.102;6.848;2023-03-04T00:49:13;3.50;99.90
20457;DHT22;10387;51.102;6.848;2023-03-04T00:51:39;3.50;99.90
20457;DHT22;10387;51.102;6.848;2023-03-04T00:54:05;3.60;99.90
20457;DHT22;10387;51.102;6.848;2023-03-04T00:56:30;3.60;99.90
20457;DHT22;10387;51.102;6.848;2023-03-04T00:58:57;3.60;99.90
20457;DHT22;10387;51.102;6.848;2023-03-04T01:01:25;3.50;99.90
20457;DHT22;10387;51.102;6.848;2023-03-04T01:03:52;3.60;99.90
20457;DHT22;10387;51.102;6.848;2023-03-04T01:06:18;3.60;99.90
20457;DHT22;10387;51.102;6.848;2023-03-04T01:08:43;3.60;99.90
20457;DHT22;10387;51.102;6.848;2023-03-04T01:11:09;3.60;99.90
20457;DHT22;10387;51.102;6.848;2023-03-04T01:13:35;3.60;99.90
20457;DHT22;10387;51.102;6.848;2023-03-04T01:16:02;3.60;99.90
20457;DHT22;10387;51.102;6.848;2023-03-04T01:18:31;3.60;99.90
20457;DHT22;10387;51.102;6.848;2023-03-04T01:20:57;3.60;99.90
20457;DHT22;10387;51.102;6.848;2023-03-04T01:23:23;3.70;99.90
20457;DHT22;10387;51.102;6.848;2023-03-04T01:25:48;3.60;99.90
20457;DHT22;10387;51.102;6.848;2023-03-04T01:28:14;3.70;99.90
20457;DHT22;10387;51.102;6.848;2023-03-04T01:30:40;3.70;99.90
20457;DHT22;10387;51.102;6.848;2023-03-04T01:33:06;3.70;99.90
20457;DHT22;10387;51.102;6.848;2023-03-04T01:35:32;3.70;99.90
20457;DHT22;10387;51.102;6.848;2023-03-04T01:37:58;3.70;99.90
20457;DHT22;10387;51.102;6.848;2023-03-04T01:40:23;3.80;99.90
20457;DHT22;10387;51.102;6.848;2023-03-04T01:42:49;3.80;99.90
20457;DHT22;10387;51.102;6.848;2023-03-04T01:45:18;3.80;99.90
20457;DHT22;10387;51.102;6.848;2023-03-04T01:47:46;3.80;99.90
20457;DHT22;10387;51.102;6.848;2023-03-04T01:50:35;3.80;99.90
20457;DHT22;10387;51.102;6.848;2023-03-04T01:53:01;3.80;99.90
20457;DHT22;10387;51.102;6.848;2023-03-04T01:55:28;3.80;99.90
20457;DHT22;10387;51.102;6.848;2023-03-04T01:57:54;3.90;99.90
20457;DHT22;10387;51.102;6.848;2023-03-04T02:00:31;3.80;99.90
20457;DHT22;10387;51.102;6.848;2023-03-04T02:03:13;3.90;99.90
20457;DHT22;10387;51.102;6.848;2023-03-04T02:05:46;3.90;99.90
20457;DHT22;10387;51.102;6.848;2023-03-04T02:08:13;3.90;99.90
20457;DHT22;10387;51.102;6.848;2023-03-04T02:10:41;3.90;99.90
20457;DHT22;10387;51.102;6.848;2023-03-04T02:13:07;3.90;99.90
20457;DHT22;10387;51.102;6.848;2023-03-04T02:15:33;3.90;99.90
20457;DHT22;10387;51.102;6.848;2023-03-04T02:17:59;3.90;99.90
20457;DHT22;10387;51.102;6.848;2023-03-04T02:23:25;3.90;99.90
20457;DHT22;10387;51.102;6.848;2023-03-04T02:26:28;3.90;99.90
20457;DHT22;10387;51.102;6.848;2023-03-04T02:28:56;3.90;99.90
20457;DHT22;10387;51.102;6.848;2023-03-04T02:34:03;3.90;99.90
20457;DHT22;10387;51.102;6.848;2023-03-04T02:36:30;3.90;99.90
20457;DHT22;10387;51.102;6.848;2023-03-04T02:39:05;3.90;99.90
20457;DHT22;10387;51.102;6.848;2023-03-04T02:41:32;3.90;99.90
20457;DHT22;10387;51.102;6.848;2023-03-04T02:43:58;3.90;99.90
20457;DHT22;10387;51.102;6.848;2023-03-04T02:46:24;3.90;99.90
20457;DHT22;10387;51.102;6.848;2023-03-04T02:48:50;3.90;99.90
20457;DHT22;10387;51.102;6.848;2023-03-04T02:51:16;3.80;99.90
20457;DHT22;10387;51.102;6.848;2023-03-04T02:53:42;3.80;99.90
20457;DHT22;10387;51.102;6.848;2023-03-04T02:56:08;3.80;99.90
20457;DHT22;10387;51.102;6.848;2023-03-04T02:58:36;3.90;99.90
20457;DHT22;10387;51.102;6.848;2023-03-04T03:01:04;3.80;99.90
20457;DHT22;10387;51.102;6.848;2023-03-04T03:03:30;3.90;99.90
20457;DHT22;10387;51.102;6.848;2023-03-04T03:05:56;3.90;99.90
20457;DHT22;10387;51.102;6.848;2023-03-04T03:08:22;3.90;99.90
20457;DHT22;10387;51.102;6.848;2023-03-04T03:10:49;3.90;99.90
20457;DHT22;10387;51.102;6.848;2023-03-04T03:13:15;3.90;99.90
20457;DHT22;10387;51.102;6.848;2023-03-04T03:15:41;3.90;99.90
20457;DHT22;10387;51.102;6.848;2023-03-04T03:18:09;3.90;99.90
20457;DHT22;10387;51.102;6.848;2023-03-04T03:20:35;3.90;99.90
20457;DHT22;10387;51.102;6.848;2023-03-04T03:23:01;3.90;99.90
20457;DHT22;10387;51.102;6.848;2023-03-04T03:25:27;3.90;99.90
20457;DHT22;10387;51.102;6.848;2023-03-04T03:27:53;3.90;99.90
20457;DHT22;10387;51.102;6.848;2023-03-04T03:30:19;3.90;99.90
20457;DHT22;10387;51.102;6.848;2023-03-04T03:32:44;3.90;99.90
20457;DHT22;10387;51.102;6.848;2023-03-04T03:35:10;3.90;99.90
20457;DHT22;10387;51.102;6.848;2023-03-04T03:37:36;3.90;99.90
20457;DHT22;10387;51.102;6.848;2023-03-04T03:40:03;3.90;99.90
20457;DHT22;10387;51.102;6.848;2023-03-04T03:42:29;4.00;99.90
20457;DHT22;10387;51.102;6.848;2023-03-04T03:44:54;4.00;99.90
20457;DHT22;10387;51.102;6.848;2023-03-04T03:47:20;3.90;99.90
20457;DHT22;10387;51.102;6.848;2023-03-04T03:49:46;3.90;99.90
20457;DHT22;10387;51.102;6.848;2023-03-04T03:52:12;3.90;99.90
20457;DHT22;10387;51.102;6.848;2023-03-04T03:54:37;3.90;99.90
20457;DHT22;10387;51.102;6.848;2023-03-04T03:57:04;3.90;99.90
20457;DHT22;10387;51.102;6.848;2023-03-04T03:59:30;3.90;99.90
20457;DHT22;10387;51.102;6.848;2023-03-04T04:01:56;3.90;99.90
20457;DHT22;10387;51.102;6.848;2023-03-04T04:04:21;3.90;99.90
20457;DHT22;10387;51.102;6.848;2023-03-04T04:06:47;3.90;99.90
20457;DHT22;10387;51.102;6.848;2023-03-04T04:09:13;4.00;99.90
20457;DHT22;10387;51.102;6.848;2023-03-04T04:11:38;4.00;99.90
20457;DHT22;10387;51.102;6.848;2023-03-04T04:14:04;4.10;99.90
20457;DHT22;10387;51.102;6.848;2023-03-04T04:16:30;4.20;99.90
20457;DHT22;10387;51.102;6.848;2023-03-04T04:18:56;4.20;99.90
20457;DHT22;10387;51.102;6.848;2023-03-04T04:21:22;4.30;99.90
20457;DHT22;10387;51.102;6.848;2023-03-04T04:23:47;4.30;99.90
20457;DHT22;10387;51.102;6.848;2023-03-04T04:26:13;4.30;99.90
20457;DHT22;10387;51.102;6.848;2023-03-04T04:28:38;4.30;99.90
20457;DHT22;10387;51.102;6.848;2023-03-04T04:31:08;4.30;99.90
20457;DHT22;10387;51.102;6.848;2023-03-04T04:33:34;4.20;99.90
20457;DHT22;10387;51.102;6.848;2023-03-04T04:36:00;4.20;99.90
20457;DHT22;10387;51.102;6.848;2023-03-04T04:38:27;4.20;99.90
20457;DHT22;10387;51.102;6.848;2023-03-04T04:40:52;4.30;99.90
20457;DHT22;10387;51.102;6.848;2023-03-04T04:43:20;4.20;99.90
20457;DHT22;10387;51.102;6.848;2023-03-04T04:45:46;4.20;99.90
20457;DHT22;10387;51.102;6.848;2023-03-04T04:48:12;4.20;99.90
20457;DHT22;10387;51.102;6.848;2023-03-04T04:50:37;4.20;99.90
20457;DHT22;10387;51.102;6.848;2023-03-04T04:53:03;4.20;99.90
20457;DHT22;10387;51.102;6.848;2023-03-04T04:55:29;4.10;99.90
20457;DHT22;10387;51.102;6.848;2023-03-04T04:57:55;4.20;99.90
20457;DHT22;10387;51.102;6.848;2023-03-04T05:00:21;4.20;99.90
20457;DHT22;10387;51.102;6.848;2023-03-04T05:02:46;4.20;99.90
20457;DHT22;10387;51.102;6.848;2023-03-04T05:05:12;4.20;99.90
20457;DHT22;10387;51.102;6.848;2023-03-04T05:07:38;4.20;99.90
20457;DHT22;10387;51.102;6.848;2023-03-04T05:10:04;4.20;99.90
20457;DHT22;10387;51.102;6.848;2023-03-04T05:12:30;4.20;99.90
20457;DHT22;10387;51.102;6.848;2023-03-04T05:14:55;4.30;99.90
20457;DHT22;10387;51.102;6.848;2023-03-04T05:17:22;4.20;99.90
20457;DHT22;10387;51.102;6.848;2023-03-04T05:19:49;4.30;99.90
20457;DHT22;10387;51.102;6.848;2023-03-04T05:22:14;4.30;99.90
20457;DHT22;10387;51.102;6.848;2023-03-04T05:24:40;4.30;99.90
20457;DHT22;10387;51.102;6.848;2023-03-04T05:27:06;4.30;99.90
20457;DHT22;10387;51.102;6.848;2023-03-04T05:29:32;4.30;99.90
20457;DHT22;10387;51.102;6.848;2023-03-04T05:31:57;4.30;99.90
20457;DHT22;10387;51.102;6.848;2023-03-04T05:34:23;4.30;99.90
20457;DHT22;10387;51.102;6.848;2023-03-04T05:36:49;4.40;99.90
20457;DHT22;10387;51.102;6.848;2023-03-04T05:39:14;4.40;99.90
20457;DHT22;10387;51.102;6.848;2023-03-04T05:41:40;4.40;99.90
20457;DHT22;10387;51.102;6.848;2023-03-04T05:44:06;4.40;99.90
20457;DHT22;10387;51.102;6.848;2023-03-04T05:46:31;4.40;99.90
20457;DHT22;10387;51.102;6.848;2023-03-04T05:48:57;4.40;99.90
20457;DHT22;10387;51.102;6.848;2023-03-04T05:51:23;4.40;99.90
20457;DHT22;10387;51.102;6.848;2023-03-04T05:53:48;4.40;99.90
20457;DHT22;10387;51.102;6.848;2023-03-04T06:40:12;4.50;99.90
20457;DHT22;10387;51.102;6.848;2023-03-04T06:42:38;4.50;99.90
20457;DHT22;10387;51.102;6.848;2023-03-04T06:45:05;4.50;99.90
20457;DHT22;10387;51.102;6.848;2023-03-04T06:47:30;4.50;99.90
20457;DHT22;10387;51.102;6.848;2023-03-04T06:49:56;4.50;99.90
20457;DHT22;10387;51.102;6.848;2023-03-04T06:52:22;4.50;99.90
20457;DHT22;10387;51.102;6.848;2023-03-04T06:54:48;4.50;99.90
20457;DHT22;10387;51.102;6.848;2023-03-04T06:57:14;4.50;99.90
20457;DHT22;10387;51.102;6.848;2023-03-04T06:59:39;4.50;99.90
20457;DHT22;10387;51.102;6.848;2023-03-04T07:02:06;4.50;99.90
20457;DHT22;10387;51.102;6.848;2023-03-04T07:04:31;4.50;99.90
20457;DHT22;10387;51.102;6.848;2023-03-04T07:07:00;4.50;99.90
20457;DHT22;10387;51.102;6.848;2023-03-04T07:09:25;4.50;99.90
20457;DHT22;10387;51.102;6.848;2023-03-04T07:11:53;4.50;99.90
20457;DHT22;10387;51.102;6.848;2023-03-04T07:14:18;4.50;99.90
20457;DHT22;10387;51.102;6.848;2023-03-04T07:16:44;4.60;99.90
20457;DHT22;10387;51.102;6.848;2023-03-04T07:19:10;4.60;99.90
20457;DHT22;10387;51.102;6.848;2023-03-04T07:21:35;4.60;99.90
20457;DHT22;10387;51.102;6.848;2023-03-04T07:24:02;4.60;99.90
20457;DHT22;10387;51.102;6.848;2023-03-04T07:26:28;4.70;99.90
20457;DHT22;10387;51.102;6.848;2023-03-04T07:28:54;4.60;99.90
20457;DHT22;10387;51.102;6.848;2023-03-04T07:31:24;4.70;99.90
20457;DHT22;10387;51.102;6.848;2023-03-04T07:33:56;4.70;99.90
20457;DHT22;10387;51.102;6.848;2023-03-04T07:36:22;4.70;99.90
20457;DHT22;10387;51.102;6.848;2023-03-04T07:38:49;4.70;99.90
20457;DHT22;10387;51.102;6.848;2023-03-04T07:41:16;4.70;99.90
20457;DHT22;10387;51.102;6.848;2023-03-04T07:43:43;4.70;99.90
20457;DHT22;10387;51.102;6.848;2023-03-04T07:46:09;4.70;99.90
20457;DHT22;10387;51.102;6.848;2023-03-04T07:48:35;4.70;99.90
20457;DHT22;10387;51.102;6.848;2023-03-04T07:51:22;4.80;99.90
20457;DHT22;10387;51.102;6.848;2023-03-04T07:53:51;4.80;99.90
20457;DHT22;10387;51.102;6.848;2023-03-04T07:56:20;4.80;99.90
20457;DHT22;10387;51.102;6.848;2023-03-04T07:58:46;4.80;99.90
20457;DHT22;10387;51.102;6.848;2023-03-04T08:01:20;4.90;99.90
20457;DHT22;10387;51.102;6.848;2023-03-04T08:03:46;4.90;99.90
20457;DHT22;10387;51.102;6.848;2023-03-04T08:06:15;4.90;99.90
20457;DHT22;10387;51.102;6.848;2023-03-04T08:08:41;4.90;99.90
20457;DHT22;10387;51.102;6.848;2023-03-04T08:11:13;4.90;99.90
20457;DHT22;10387;51.102;6.848;2023-03-04T08:13:39;4.90;99.90
20457;DHT22;10387;51.102;6.848;2023-03-04T08:16:05;4.90;99.90
20457;DHT22;10387;51.102;6.848;2023-03-04T08:18:31;4.90;99.90
20457;DHT22;10387;51.102;6.848;2023-03-04T08:20:56;4.80;99.90
20457;DHT22;10387;51.102;6.848;2023-03-04T08:23:22;4.80;99.90
20457;DHT22;10387;51.102;6.848;2023-03-04T08:25:48;4.90;99.90
20457;DHT22;10387;51.102;6.848;2023-03-04T08:28:14;5.00;99.90
20457;DHT22;10387;51.102;6.848;2023-03-04T08:30:40;5.10;99.90
20457;DHT22;10387;51.102;6.848;2023-03-04T08:33:06;5.20;99.90
20457;DHT22;10387;51.102;6.848;2023-03-04T08:35:35;5.20;99.90
20457;DHT22;10387;51.102;6.848;2023-03-04T08:38:01;5.30;99.90
20457;DHT22;10387;51.102;6.848;2023-03-04T08:40:27;5.30;99.90
20457;DHT22;10387;51.102;6.848;2023-03-04T08:42:53;5.30;99.90
20457;DHT22;10387;51.102;6.848;2023-03-04T08:45:18;5.30;99.90
20457;DHT22;10387;51.102;6.848;2023-03-04T08:47:44;5.30;99.90
20457;DHT22;10387;51.102;6.848;2023-03-04T08:50:10;5.40;99.90
20457;DHT22;10387;51.102;6.848;2023-03-04T08:52:36;5.60;99.90
20457;DHT22;10387;51.102;6.848;2023-03-04T08:55:01;5.70;99.90
20457;DHT22;10387;51.102;6.848;2023-03-04T08:57:28;5.80;99.90
20457;DHT22;10387;51.102;6.848;2023-03-04T08:59:53;6.00;99.90
20457;DHT22;10387;51.102;6.848;2023-03-04T09:02:19;6.00;99.90
20457;DHT22;10387;51.102;6.848;2023-03-04T09:04:45;6.00;99.90
20457;DHT22;10387;51.102;6.848;2023-03-04T09:07:10;6.00;99.90
20457;DHT22;10387;51.102;6.848;2023-03-04T09:09:36;6.10;99.90
20457;DHT22;10387;51.102;6.848;2023-03-04T09:12:03;6.20;99.90
20457;DHT22;10387;51.102;6.848;2023-03-04T09:14:28;6.30;99.90
20457;DHT22;10387;51.102;6.848;2023-03-04T09:16:54;6.30;99.90
20457;DHT22;10387;51.102;6.848;2023-03-04T09:19:20;6.40;99.90
20457;DHT22;10387;51.102;6.848;2023-03-04T09:21:45;6.50;99.90
20457;DHT22;10387;51.102;6.848;2023-03-04T09:24:11;6.50;99.90
20457;DHT22;10387;51.102;6.848;2023-03-04T09:26:37;6.40;99.90
20457;DHT22;10387;51.102;6.848;2023-03-04T09:29:03;6.40;99.90
20457;DHT22;10387;51.102;6.848;2023-03-04T09:31:29;6.40;99.90
20457;DHT22;10387;51.102;6.848;2023-03-04T09:33:57;6.40;99.90
20457;DHT22;10387;51.102;6.848;2023-03-04T09:36:23;6.40;99.90
20457;DHT22;10387;51.102;6.848;2023-03-04T09:38:49;6.40;99.90
20457;DHT22;10387;51.102;6.848;2023-03-04T09:41:20;6.40;99.90
20457;DHT22;10387;51.102;6.848;2023-03-04T09:43:47;6.40;99.90
20457;DHT22;10387;51.102;6.848;2023-03-04T09:46:38;6.40;99.90
20457;DHT22;10387;51.102;6.848;2023-03-04T09:49:02;6.30;99.90
20457;DHT22;10387;51.102;6.848;2023-03-04T09:51:54;6.20;99.90
20457;DHT22;10387;51.102;6.848;2023-03-04T09:57:21;6.10;99.90
20457;DHT22;10387;51.102;6.848;2023-03-04T09:59:53;6.00;99.90
20457;DHT22;10387;51.102;6.848;2023-03-04T10:02:36;5.90;99.90
20457;DHT22;10387;51.102;6.848;2023-03-04T10:05:05;5.90;99.90
20457;DHT22;10387;51.102;6.848;2023-03-04T10:07:40;5.90;99.90
20457;DHT22;10387;51.102;6.848;2023-03-04T10:10:31;6.00;99.90
20457;DHT22;10387;51.102;6.848;2023-03-04T10:12:59;6.20;99.90
20457;DHT22;10387;51.102;6.848;2023-03-04T10:15:42;6.20;99.90
20457;DHT22;10387;51.102;6.848;2023-03-04T10:18:22;6.30;99.90
20457;DHT22;10387;51.102;6.848;2023-03-04T10:23:28;6.40;99.90
20457;DHT22;10387;51.102;6.848;2023-03-04T10:25:55;6.40;99.90
20457;DHT22;10387;51.102;6.848;2023-03-04T10:28:25;6.50;99.90
20457;DHT22;10387;51.102;6.848;2023-03-04T10:30:54;6.60;99.90
20457;DHT22;10387;51.102;6.848;2023-03-04T10:33:32;6.60;99.90
20457;DHT22;10387;51.102;6.848;2023-03-04T10:41:32;6.70;99.90
20457;DHT22;10387;51.102;6.848;2023-03-04T10:46:40;6.90;99.90
20457;DHT22;10387;51.102;6.848;2023-03-04T10:49:06;7.00;99.90
20457;DHT22;10387;51.102;6.848;2023-03-04T10:51:44;7.20;99.90
20457;DHT22;10387;51.102;6.848;2023-03-04T11:02:29;7.30;99.90
20457;DHT22;10387;51.102;6.848;2023-03-04T11:07:45;7.30;99.90
20457;DHT22;10387;51.102;6.848;2023-03-04T11:12:48;7.20;99.90
20457;DHT22;10387;51.102;6.848;2023-03-04T11:15:20;7.20;99.90
20457;DHT22;10387;51.102;6.848;2023-03-04T11:17:55;7.20;99.90
20457;DHT22;10387;51.102;6.848;2023-03-04T11:22:56;7.10;99.90
20457;DHT22;10387;51.102;6.848;2023-03-04T11:25:34;7.10;99.90
20457;DHT22;10387;51.102;6.848;2023-03-04T11:28:23;7.10;99.90
20457;DHT22;10387;51.102;6.848;2023-03-04T11:31:02;7.00;99.90
20457;DHT22;10387;51.102;6.848;2023-03-04T11:38:53;6.70;99.90
20457;DHT22;10387;51.102;6.848;2023-03-04T11:41:40;6.70;99.90
20457;DHT22;10387;51.102;6.848;2023-03-04T11:44:07;6.80;99.90
20457;DHT22;10387;51.102;6.848;2023-03-04T11:49:46;7.30;99.90
20457;DHT22;10387;51.102;6.848;2023-03-04T11:52:21;7.50;99.90
20457;DHT22;10387;51.102;6.848;2023-03-04T12:00:47;8.00;99.90
20457;DHT22;10387;51.102;6.848;2023-03-04T12:22:53;8.10;99.90
20457;DHT22;10387;51.102;6.848;2023-03-04T12:29:02;8.30;99.90
20457;DHT22;10387;51.102;6.848;2023-03-04T12:45:21;7.60;99.90
20457;DHT22;10387;51.102;6.848;2023-03-04T12:48:18;7.50;99.90
20457;DHT22;10387;51.102;6.848;2023-03-04T12:56:41;8.10;99.90
20457;DHT22;10387;51.102;6.848;2023-03-04T12:59:20;8.30;99.90
20457;DHT22;10387;51.102;6.848;2023-03-04T13:01:55;8.40;99.90
20457;DHT22;10387;51.102;6.848;2023-03-04T13:07:42;8.10;99.90
20457;DHT22;10387;51.102;6.848;2023-03-04T13:10:13;8.00;99.90
20457;DHT22;10387;51.102;6.848;2023-03-04T13:12:55;8.00;99.90
20457;DHT22;10387;51.102;6.848;2023-03-04T13:17:50;7.90;99.90
20457;DHT22;10387;51.102;6.848;2023-03-04T13:20:40;7.90;99.90
20457;DHT22;10387;51.102;6.848;2023-03-04T13:26:05;7.80;99.90
20457;DHT22;10387;51.102;6.848;2023-03-04T13:28:36;7.70;99.90
20457;DHT22;10387;51.102;6.848;2023-03-04T13:31:16;7.60;99.90
20457;DHT22;10387;51.102;6.848;2023-03-04T13:34:02;7.60;99.90
20457;DHT22;10387;51.102;6.848;2023-03-04T13:36:30;7.60;99.90
20457;DHT22;10387;51.102;6.848;2023-03-04T13:38:58;7.60;99.90
20457;DHT22;10387;51.102;6.848;2023-03-04T13:41:45;7.60;99.90
20457;DHT22;10387;51.102;6.848;2023-03-04T13:44:35;7.50;99.90
20457;DHT22;10387;51.102;6.848;2023-03-04T13:47:29;7.40;99.90
20457;DHT22;10387;51.102;6.848;2023-03-04T13:50:28;7.40;99.90
20457;DHT22;10387;51.102;6.848;2023-03-04T13:53:18;7.40;99.90
20457;DHT22;10387;51.102;6.848;2023-03-04T13:56:03;7.40;99.90
20457;DHT22;10387;51.102;6.848;2023-03-04T13:58:29;7.30;99.90
20457;DHT22;10387;51.102;6.848;2023-03-04T14:00:55;7.30;99.90
20457;DHT22;10387;51.102;6.848;2023-03-04T14:03:25;7.30;99.90
20457;DHT22;10387;51.102;6.848;2023-03-04T14:06:12;7.30;99.90
20457;DHT22;10387;51.102;6.848;2023-03-04T14:08:39;7.20;99.90
20457;DHT22;10387;51.102;6.848;2023-03-04T14:11:13;7.20;99.90
20457;DHT22;10387;51.102;6.848;2023-03-04T14:13:40;7.30;99.90
20457;DHT22;10387;51.102;6.848;2023-03-04T14:16:08;7.50;99.90
20457;DHT22;10387;51.102;6.848;2023-03-04T14:18:34;7.60;99.90
20457;DHT22;10387;51.102;6.848;2023-03-04T14:20:59;7.60;99.90
20457;DHT22;10387;51.102;6.848;2023-03-04T14:23:31;7.70;99.90
20457;DHT22;10387;51.102;6.848;2023-03-04T14:26:11;7.70;99.90
20457;DHT22;10387;51.102;6.848;2023-03-04T14:28:57;7.70;99.90
20457;DHT22;10387;51.102;6.848;2023-03-04T14:31:26;7.70;99.90
20457;DHT22;10387;51.102;6.848;2023-03-04T14:33:56;7.70;99.90
20457;DHT22;10387;51.102;6.848;2023-03-04T14:36:28;7.70;99.90
20457;DHT22;10387;51.102;6.848;2023-03-04T14:38:56;7.60;99.90
20457;DHT22;10387;51.102;6.848;2023-03-04T14:41:31;7.60;99.90
20457;DHT22;10387;51.102;6.848;2023-03-04T14:46:36;7.50;99.90
20457;DHT22;10387;51.102;6.848;2023-03-04T14:49:04;7.50;99.90
20457;DHT22;10387;51.102;6.848;2023-03-04T14:51:39;7.50;99.90
20457;DHT22;10387;51.102;6.848;2023-03-04T14:56:52;7.40;99.90
20457;DHT22;10387;51.102;6.848;2023-03-04T14:59:27;7.40;99.90
20457;DHT22;10387;51.102;6.848;2023-03-04T15:02:12;7.40;99.90
20457;DHT22;10387;51.102;6.848;2023-03-04T15:04:40;7.40;99.90
20457;DHT22;10387;51.102;6.848;2023-03-04T15:07:20;7.40;99.90
20457;DHT22;10387;51.102;6.848;2023-03-04T15:09:53;7.40;99.90
20457;DHT22;10387;51.102;6.848;2023-03-04T15:12:26;7.30;99.90
20457;DHT22;10387;51.102;6.848;2023-03-04T15:15:28;7.30;99.90
20457;DHT22;10387;51.102;6.848;2023-03-04T15:18:00;7.30;99.90
20457;DHT22;10387;51.102;6.848;2023-03-04T15:20:28;7.20;99.90
20457;DHT22;10387;51.102;6.848;2023-03-04T15:25:19;7.20;99.90
20457;DHT22;10387;51.102;6.848;2023-03-04T15:27:46;7.20;99.90
20457;DHT22;10387;51.102;6.848;2023-03-04T15:30:32;7.20;99.90
20457;DHT22;10387;51.102;6.848;2023-03-04T15:32:59;7.20;99.90
20457;DHT22;10387;51.102;6.848;2023-03-04T15:35:31;7.10;99.90
20457;DHT22;10387;51.102;6.848;2023-03-04T15:37:59;7.10;99.90
20457;DHT22;10387;51.102;6.848;2023-03-04T15:40:36;7.10;99.90
20457;DHT22;10387;51.102;6.848;2023-03-04T15:43:06;7.10;99.90
20457;DHT22;10387;51.102;6.848;2023-03-04T15:45:38;7.10;99.90
20457;DHT22;10387;51.102;6.848;2023-03-04T15:48:12;7.10;99.90
20457;DHT22;10387;51.102;6.848;2023-03-04T15:50:42;7.10;99.90
20457;DHT22;10387;51.102;6.848;2023-03-04T15:53:24;7.00;99.90
20457;DHT22;10387;51.102;6.848;2023-03-04T15:55:51;7.00;99.90
20457;DHT22;10387;51.102;6.848;2023-03-04T15:58:17;7.00;99.90
20457;DHT22;10387;51.102;6.848;2023-03-04T16:00:43;7.00;99.90
20457;DHT22;10387;51.102;6.848;2023-03-04T16:03:14;7.00;99.90
20457;DHT22;10387;51.102;6.848;2023-03-04T16:05:40;6.90;99.90
20457;DHT22;10387;51.102;6.848;2023-03-04T16:08:05;7.00;99.90
20457;DHT22;10387;51.102;6.848;2023-03-04T16:10:34;7.00;99.90
20457;DHT22;10387;51.102;6.848;2023-03-04T16:13:00;6.90;99.90
20457;DHT22;10387;51.102;6.848;2023-03-04T16:15:27;6.90;99.90
20457;DHT22;10387;51.102;6.848;2023-03-04T16:17:54;6.90;99.90
20457;DHT22;10387;51.102;6.848;2023-03-04T16:20:26;6.80;99.90
20457;DHT22;10387;51.102;6.848;2023-03-04T16:22:56;6.70;99.90
20457;DHT22;10387;51.102;6.848;2023-03-04T16:25:23;6.70;99.90
20457;DHT22;10387;51.102;6.848;2023-03-04T16:27:50;6.60;99.90
20457;DHT22;10387;51.102;6.848;2023-03-04T16:30:20;6.60;99.90
20457;DHT22;10387;51.102;6.848;2023-03-04T16:32:46;6.60;99.90
20457;DHT22;10387;51.102;6.848;2023-03-04T16:35:13;6.60;99.90
20457;DHT22;10387;51.102;6.848;2023-03-04T16:37:40;6.60;99.90
20457;DHT22;10387;51.102;6.848;2023-03-04T16:40:08;6.60;99.90
20457;DHT22;10387;51.102;6.848;2023-03-04T16:42:35;6.50;99.90
20457;DHT22;10387;51.102;6.848;2023-03-04T16:45:01;6.50;99.90
20457;DHT22;10387;51.102;6.848;2023-03-04T16:47:26;6.50;99.90
20457;DHT22;10387;51.102;6.848;2023-03-04T16:49:52;6.50;99.90
20457;DHT22;10387;51.102;6.848;2023-03-04T16:52:29;6.50;99.90
20457;DHT22;10387;51.102;6.848;2023-03-04T16:54:55;6.40;99.90
20457;DHT22;10387;51.102;6.848;2023-03-04T16:57:22;6.30;99.90
20457;DHT22;10387;51.102;6.848;2023-03-04T16:59:48;6.20;99.90
20457;DHT22;10387;51.102;6.848;2023-03-04T17:02:19;6.20;99.90
20457;DHT22;10387;51.102;6.848;2023-03-04T17:04:47;6.10;99.90
20457;DHT22;10387;51.102;6.848;2023-03-04T17:07:12;6.10;99.90
20457;DHT22;10387;51.102;6.848;2023-03-04T17:09:39;6.10;99.90
20457;DHT22;10387;51.102;6.848;2023-03-04T17:12:06;6.10;99.90
20457;DHT22;10387;51.102;6.848;2023-03-04T17:14:32;6.10;99.90
20457;DHT22;10387;51.102;6.848;2023-03-04T17:16:58;6.10;99.90
20457;DHT22;10387;51.102;6.848;2023-03-04T17:19:24;6.00;99.90
20457;DHT22;10387;51.102;6.848;2023-03-04T17:21:50;6.00;99.90
20457;DHT22;10387;51.102;6.848;2023-03-04T17:24:16;6.10;99.90
20457;DHT22;10387;51.102;6.848;2023-03-04T17:26:41;6.10;99.90
20457;DHT22;10387;51.102;6.848;2023-03-04T17:29:08;6.10;99.90
20457;DHT22;10387;51.102;6.848;2023-03-04T17:31:35;6.10;99.90
20457;DHT22;10387;51.102;6.848;2023-03-04T17:34:01;6.10;99.90
20457;DHT22;10387;51.102;6.848;2023-03-04T17:36:27;6.10;99.90
20457;DHT22;10387;51.102;6.848;2023-03-04T17:38:53;6.20;99.90
20457;DHT22;10387;51.102;6.848;2023-03-04T17:41:19;6.10;99.90
20457;DHT22;10387;51.102;6.848;2023-03-04T17:43:47;6.10;99.90
20457;DHT22;10387;51.102;6.848;2023-03-04T17:46:15;6.10;99.90
20457;DHT22;10387;51.102;6.848;2023-03-04T17:48:41;6.10;99.90
20457;DHT22;10387;51.102;6.848;2023-03-04T17:51:07;6.00;99.90
20457;DHT22;10387;51.102;6.848;2023-03-04T17:53:33;6.10;99.90
20457;DHT22;10387;51.102;6.848;2023-03-04T17:56:01;6.10;99.90
20457;DHT22;10387;51.102;6.848;2023-03-04T17:58:29;6.10;99.90
20457;DHT22;10387;51.102;6.848;2023-03-04T18:01:04;6.10;99.90
20457;DHT22;10387;51.102;6.848;2023-03-04T18:03:32;6.00;99.90
20457;DHT22;10387;51.102;6.848;2023-03-04T18:05:58;6.00;99.90
20457;DHT22;10387;51.102;6.848;2023-03-04T18:08:24;6.00;99.90
20457;DHT22;10387;51.102;6.848;2023-03-04T18:10:49;5.90;99.90
20457;DHT22;10387;51.102;6.848;2023-03-04T18:13:15;5.90;99.90
20457;DHT22;10387;51.102;6.848;2023-03-04T18:15:41;5.90;99.90
20457;DHT22;10387;51.102;6.848;2023-03-04T18:18:06;5.90;99.90
20457;DHT22;10387;51.102;6.848;2023-03-04T18:20:32;6.00;99.90
20457;DHT22;10387;51.102;6.848;2023-03-04T18:22:57;6.00;99.90
20457;DHT22;10387;51.102;6.848;2023-03-04T18:25:24;6.10;99.90
20457;DHT22;10387;51.102;6.848;2023-03-04T18:27:50;6.10;99.90
20457;DHT22;10387;51.102;6.848;2023-03-04T18:30:16;6.20;99.90